Jessica S. Settoon — WDD9545 — position and weather

sailwx.info

Track history (hours):
 
Tides and Currents Weather Stations Pressure Air Temp Water Temp Dewpoint Dewpoint Depression Visibility Wind Speed Wind Dir Waves Ship Positions

Jessica S. Settoon

Owner: Settoon Towing LLC, Houma, LA. More information available from US FCC via Universal Licensing System and Coast Guard Vessel Documentation Center.

Last reported at 2016-May-11 04:28 UTC. Time now 2016-May-26 18:23 UTC.
Position N 29°32' W 090°51'.
Warning: this ship's position is 15 days out of date.

Length 17 m; draft 3 m.

Type: Tug. MMSI: 367312940.

Date/timePositionNaut miles runAvg speedWind from/ knotsBaromVisibWave heightAir tempDewpointWater temp
2016-May-11 04:28N 29°32' W 090°51'5 5.6
2016-May-11 03:33N 29°33' W 090°46'3 3.1
2016-May-11 02:33N 29°35' W 090°43'2 2.0
2016-May-11 01:33N 29°33' W 090°42'7 6.6
2016-May-11 00:33N 29°26' W 090°43'5 0.3
2016-May-10 09:28N 29°22' W 090°44'7 7.4
2016-May-10 08:33N 29°29' W 090°43'6 6.3
2016-May-10 07:33N 29°35' W 090°43'2 2.2
2016-May-10 06:33N 29°37' W 090°42'6 5.9
2016-May-10 05:33N 29°35' W 090°35'3 0.2
2016-May-09 10:33N 29°34' W 090°32'6 6.2
2016-May-09 09:33N 29°35' W 090°38'4 4.1
2016-May-09 08:33N 29°34' W 090°43'6 5.9
2016-May-09 07:31N 29°32' W 090°50'  
2016-May-06 23:32N 29°34' W 090°56'6 5.7
2016-May-06 22:33N 29°32' W 090°50'5 5.0
2016-May-06 21:33N 29°34' W 090°44'2 1.6
2016-May-06 20:33N 29°35' W 090°43'4 4.4
2016-May-06 19:33N 29°31' W 090°43'15 2.1
2016-May-06 12:25N 29°23' W 090°57'0 0.0
2016-May-06 11:33N 29°23' W 090°57'6 0.4
2016-May-05 22:25N 29°24' W 090°51'  
2016-May-03 11:26N 29°22' W 090°44'7 7.8
2016-May-03 10:33N 29°29' W 090°43'6 5.8
2016-May-03 09:33N 29°35' W 090°43'0 0.1
2016-May-03 08:33N 29°35' W 090°43'6 6.2
2016-May-03 07:32N 29°32' W 090°50'  
Track history (hours):
 
Tides and Currents Weather Stations Pressure Air Temp Water Temp Dewpoint Dewpoint Depression Visibility Wind Speed Wind Dir Waves Ship Positions

Jessica S. Settoon

Owner: Settoon Towing LLC, Houma, LA. More information available from US FCC via Universal Licensing System and Coast Guard Vessel Documentation Center.

Last reported at 2016-May-11 04:28 UTC. Time now 2016-May-26 18:23 UTC.
Position N 29°32' W 090°51'.
Warning: this ship's position is 15 days out of date.

Length 17 m; draft 3 m.

Type: Tug. MMSI: 367312940.

Date/timePositionNaut miles runAvg speedWind from/ knotsBaromVisibWave heightAir tempDewpointWater temp
2016-May-11 04:28N 29°32' W 090°51'5 5.6
2016-May-11 03:33N 29°33' W 090°46'3 3.1
2016-May-11 02:33N 29°35' W 090°43'2 2.0
2016-May-11 01:33N 29°33' W 090°42'7 6.6
2016-May-11 00:33N 29°26' W 090°43'5 0.3
2016-May-10 09:28N 29°22' W 090°44'7 7.4
2016-May-10 08:33N 29°29' W 090°43'6 6.3
2016-May-10 07:33N 29°35' W 090°43'2 2.2
2016-May-10 06:33N 29°37' W 090°42'6 5.9
2016-May-10 05:33N 29°35' W 090°35'3 0.2
2016-May-09 10:33N 29°34' W 090°32'6 6.2
2016-May-09 09:33N 29°35' W 090°38'4 4.1
2016-May-09 08:33N 29°34' W 090°43'6 5.9
2016-May-09 07:31N 29°32' W 090°50'  
2016-May-06 23:32N 29°34' W 090°56'6 5.7
2016-May-06 22:33N 29°32' W 090°50'5 5.0
2016-May-06 21:33N 29°34' W 090°44'2 1.6
2016-May-06 20:33N 29°35' W 090°43'4 4.4
2016-May-06 19:33N 29°31' W 090°43'15 2.1
2016-May-06 12:25N 29°23' W 090°57'0 0.0
2016-May-06 11:33N 29°23' W 090°57'6 0.4
2016-May-05 22:25N 29°24' W 090°51'  
2016-May-03 11:26N 29°22' W 090°44'7 7.8
2016-May-03 10:33N 29°29' W 090°43'6 5.8
2016-May-03 09:33N 29°35' W 090°43'0 0.1
2016-May-03 08:33N 29°35' W 090°43'6 6.2
2016-May-03 07:32N 29°32' W 090°50'  

Dump ship's entire track history